Flight Track Log - Related Links

Times and Time Zones

All times are in EDT time to prevent confusion due to time zone crossing. See the FIV576 flight status page for this flight to view local times or setup timezone preferences in your user account.

Time Position Orientation Groundspeed Altitude Reporting Facility
EDT Latitude Longitude Course Direction KTS MPH feet Rate Location/Type
Mon 11:15:38 AM 36.1167 -86.6833 22° Northeast 170 196 1,400  Level Nashville TRACON
Mon 11:16:14 AM 36.1500 -86.6667 20° North 214 246 3,500 2,318 Climbing Nashville TRACON
Mon 11:17:06 AM 36.2039 -86.6550 10° North 215 247 4,800 1,368 Climbing Memphis Center
Mon 11:18:08 AM 36.2064 -86.5775 88° East 235 270 6,100 624 Climbing Memphis Center
Mon 11:19:11 AM 36.1806 -86.4900 110° East 261 300 6,100 1,440 Level Memphis Center
Mon 11:20:13 AM 36.1550 -86.3972 109° East 277 319 9,100 3,122 Climbing Memphis Center
Mon 11:21:14 AM 36.1258 -86.2839 108° East 291 335 12,500 3,000 Climbing Memphis Center
Mon 11:22:17 AM 36.0978 -86.1778 108° East 312 359 15,300 2,806 Climbing Memphis Center
Mon 11:23:18 AM 36.0689 -86.0664 108° East 331 381 18,300 2,488 Climbing Memphis Center
Mon 11:24:20 AM 36.0597 -85.9431 95° East 355 409 20,400 2,710 Climbing Memphis Center
Mon 11:25:22 AM 36.0533 -85.8156 94° East 367 422 23,900 3,000 Climbing Memphis Center
Mon 11:26:24 AM 36.0444 -85.6931 95° East 362 417 26,600 2,500 Climbing Memphis Center
Mon 11:27:22 AM 36.0342 -85.5692 96° East 355 409 28,900 1,322 Climbing Atlanta Center
Mon 11:28:22 AM 36.0233 -85.4250 95° East 380 437 29,200 700 Climbing Atlanta Center
Mon 11:29:22 AM 36.0128 -85.2531 94° East 427 491 30,300 900 Climbing Atlanta Center
Mon 11:30:22 AM 35.9997 -85.0858 95° East 460 529 31,000 350 Climbing Atlanta Center
Mon 11:31:22 AM 35.9883 -84.9139 95° East 486 559 31,000  Level Atlanta Center
Mon 11:32:22 AM 35.9728 -84.7392 96° East 503 579 31,000  Level Atlanta Center
Mon 11:33:22 AM 35.9592 -84.5647 95° East 503 579 31,000  Level Atlanta Center
Mon 11:34:22 AM 35.9453 -84.3900 96° East 503 579 31,000  Level Atlanta Center
Mon 11:35:22 AM 35.9331 -84.2489 96° East 510 587 31,000  Level Atlanta Center
Mon 11:36:22 AM 35.9164 -84.0592 96° East 510 587 31,000  Level Atlanta Center
Mon 11:37:22 AM 35.9164 -83.8772 90° East 516 594 31,000  Level Atlanta Center
Mon 11:38:22 AM 35.9786 -83.6975 67° East 533 613 31,000  Level Atlanta Center
Mon 11:39:22 AM 36.0508 -83.5175 64° Northeast 549 632 31,000  Level Atlanta Center
Mon 11:40:22 AM 36.1189 -83.3394 65° Northeast 564 649 31,000  Level Atlanta Center
Mon 11:41:22 AM 36.1867 -83.1614 65° Northeast 569 655 31,000 -50 Level Atlanta Center
Mon 11:42:22 AM 36.2539 -82.9831 65° Northeast 569 655 30,900 -500 Descending Atlanta Center
Mon 11:43:22 AM 36.3192 -82.8122 65° Northeast 559 643 30,000 -650 Descending Atlanta Center
Mon 11:44:22 AM 36.3861 -82.6383 64° Northeast 548 631 29,600 -950 Descending Atlanta Center
Mon 11:45:22 AM 36.4586 -82.4383 66° East 559 643 28,100 -1,500 Descending Atlanta Center
Mon 11:46:22 AM 36.5272 -82.2614 64° Northeast 565 650 26,600 -1,450 Descending Atlanta Center
Mon 11:47:22 AM 36.5933 -82.0814 65° Northeast 565 650 25,200 -1,400 Descending Atlanta Center
Mon 11:48:22 AM 36.6550 -81.9142 65° Northeast 541 623 23,800 -1,300 Descending Atlanta Center
Mon 11:49:22 AM 36.7128 -81.7547 66° East 511 588 22,600 -1,450 Descending Atlanta Center
Mon 11:50:22 AM 36.7661 -81.6081 66° East 476 548 20,900 -1,700 Descending Atlanta Center
Mon 11:51:22 AM 36.8056 -81.4928 67° East 432 497 19,200 -1,850 Descending Atlanta Center
Mon 11:52:22 AM 36.8528 -81.3669 65° Northeast 403 464 17,200 -1,950 Descending Atlanta Center
Mon 11:53:22 AM 36.9000 -81.2328 66° East 403 464 15,300 -1,850 Descending Atlanta Center
Mon 11:54:22 AM 36.9469 -81.1067 65° Northeast 403 464 13,500 -2,100 Descending Atlanta Center
Mon 11:55:22 AM 36.9958 -80.9669 66° East 403 464 11,100 -818 Descending Atlanta Center
Mon 11:59:52 AM 37.1489 -80.4933 58° Northeast 307 353 9,000 -826 Descending Washington Center
Mon 12:04:41 PM 37.2700 -80.1200 58° Northeast 171 197 3,400 -1,163 Descending Washington Center
Mon 12:05:00 PM 37.3255 -79.9754 58° Northeast  Level Estimated
Mon 12:08:00 PM 37.3167 -79.9667 58° Northeast  Level FlightAware Approximate

Login

Don't have an account? Register now (free) for customized features, flight alerts, and more!